createdAt,value
2022-09-23T00:01:05.370Z,82.78
2022-09-23T00:03:33.043Z,82.48
2022-09-23T00:06:05.073Z,82.54
2022-09-23T00:08:32.270Z,82.55
2022-09-23T00:11:14.731Z,82.59
2022-09-23T00:13:43.925Z,82.72
2022-09-23T00:16:16.834Z,82.50
2022-09-23T00:18:44.309Z,82.43
2022-09-23T00:21:13.882Z,82.32
2022-09-23T00:23:42.990Z,82.75
2022-09-23T00:26:12.827Z,82.33
2022-09-23T00:28:40.813Z,82.53
2022-09-23T00:31:27.411Z,82.38
2022-09-23T00:33:59.299Z,82.72
2022-09-23T00:36:26.888Z,82.65
2022-09-23T00:38:54.434Z,82.53
2022-09-23T00:41:21.456Z,82.25
2022-09-23T00:43:57.927Z,82.61
2022-09-23T00:46:37.759Z,82.80
2022-09-23T00:49:11.613Z,82.48
2022-09-23T00:51:44.371Z,82.77
2022-09-23T00:54:11.789Z,82.51
2022-09-23T00:56:39.452Z,82.66
2022-09-23T00:59:09.668Z,82.62
2022-09-23T01:01:38.638Z,82.65
2022-09-23T01:04:07.276Z,82.55
2022-09-23T01:06:33.953Z,82.94
2022-09-23T01:09:00.788Z,82.64
2022-09-23T01:11:44.850Z,82.66
2022-09-23T01:14:38.009Z,83.17
2022-09-23T01:17:32.624Z,82.90
2022-09-23T01:20:33.201Z,82.80
2022-09-23T01:23:18.303Z,83.25
2022-09-23T01:25:48.288Z,83.11
2022-09-23T01:28:33.456Z,83.18
2022-09-23T01:31:10.082Z,83.10
2022-09-23T01:33:46.413Z,83.06
2022-09-23T01:36:24.469Z,82.98
2022-09-23T01:38:59.674Z,83.13
2022-09-23T01:41:39.172Z,83.32
2022-09-23T01:44:11.426Z,83.16
2022-09-23T01:46:54.070Z,83.36
2022-09-23T01:49:28.996Z,83.24
2022-09-23T01:52:10.438Z,83.57
2022-09-23T01:54:46.621Z,83.35
2022-09-23T01:57:22.972Z,83.49
2022-09-23T02:00:00.698Z,83.59
2022-09-23T02:02:31.968Z,83.71
2022-09-23T02:05:15.627Z,84.01
2022-09-23T02:07:51.170Z,83.53
2022-09-23T02:10:49.340Z,83.89
2022-09-23T02:13:59.609Z,83.94
2022-09-23T02:16:39.409Z,83.57
2022-09-23T02:19:14.450Z,83.92
2022-09-23T02:21:47.143Z,83.95
2022-09-23T02:24:28.824Z,83.88
2022-09-23T02:27:26.007Z,84.12
2022-09-23T02:30:12.695Z,83.77
2022-09-23T02:32:53.438Z,84.19
2022-09-23T02:35:49.176Z,84.26
2022-09-23T02:38:46.537Z,84.02
2022-09-23T02:41:23.473Z,84.30
2022-09-23T02:44:03.461Z,84.31
2022-09-23T02:46:30.903Z,84.38
2022-09-23T02:49:04.239Z,84.18
2022-09-23T02:51:38.569Z,84.67
2022-09-23T02:54:10.328Z,84.59
2022-09-23T02:56:37.577Z,84.45
2022-09-23T02:59:05.327Z,84.51
2022-09-23T03:01:45.286Z,84.48
2022-09-23T03:04:15.110Z,84.77
2022-09-23T03:06:56.953Z,84.68
2022-09-23T03:09:40.439Z,84.67
2022-09-23T03:12:21.613Z,84.78
2022-09-23T03:15:14.939Z,85.02
2022-09-23T03:17:50.293Z,84.86
2022-09-23T03:20:34.719Z,84.88
2022-09-23T03:23:09.290Z,85.24
2022-09-23T03:25:39.985Z,84.92
2022-09-23T03:28:08.820Z,85.40
2022-09-23T03:30:36.731Z,85.21
2022-09-23T03:33:09.801Z,85.43
2022-09-23T03:36:01.726Z,85.24
2022-09-23T03:38:34.466Z,85.17
2022-09-23T03:41:04.204Z,85.33
2022-09-23T03:43:35.262Z,85.50
2022-09-23T03:46:07.409Z,85.73
2022-09-23T03:48:34.199Z,85.78
2022-09-23T03:51:19.788Z,85.73
2022-09-23T03:53:46.523Z,85.60
2022-09-23T03:56:13.202Z,86.01
2022-09-23T03:58:39.949Z,85.80
2022-09-23T04:01:06.758Z,85.70
2022-09-23T04:03:33.470Z,85.74
2022-09-23T04:06:00.242Z,85.80
2022-09-23T04:08:27.428Z,85.99
2022-09-23T04:11:00.232Z,85.83
2022-09-23T04:13:26.792Z,86.04
2022-09-23T04:15:53.462Z,86.11
2022-09-23T04:18:21.472Z,85.89
2022-09-23T04:20:48.713Z,86.11
2022-09-23T04:23:15.422Z,86.08
2022-09-23T04:25:48.906Z,86.31
2022-09-23T04:28:16.320Z,86.39
2022-09-23T04:30:43.892Z,86.11
2022-09-23T04:33:11.495Z,86.28
2022-09-23T04:35:40.275Z,86.48
2022-09-23T04:38:07.433Z,86.54
2022-09-23T04:40:35.751Z,86.49
2022-09-23T04:43:02.757Z,86.31
2022-09-23T04:45:30.507Z,86.41
2022-09-23T04:47:58.579Z,86.42
2022-09-23T04:50:26.556Z,86.39
2022-09-23T04:52:55.186Z,86.40
2022-09-23T04:55:22.338Z,86.75
2022-09-23T04:57:48.997Z,86.67
2022-09-23T05:00:16.147Z,86.60
2022-09-23T05:02:47.923Z,86.76
2022-09-23T05:05:18.724Z,86.59
2022-09-23T05:07:45.349Z,86.90
2022-09-23T05:10:12.299Z,86.83
2022-09-23T05:12:38.995Z,87.06
2022-09-23T05:15:06.060Z,86.64
2022-09-23T05:17:33.003Z,87.00
2022-09-23T05:20:00.122Z,87.00
2022-09-23T05:22:26.913Z,86.94
2022-09-23T05:24:54.187Z,86.99
2022-09-23T05:27:21.388Z,86.76
2022-09-23T05:29:49.007Z,87.01
2022-09-23T05:32:15.933Z,86.84
2022-09-23T05:34:43.290Z,87.22
2022-09-23T05:37:10.202Z,87.00
2022-09-23T05:39:37.218Z,87.20
2022-09-23T05:42:04.878Z,87.24
2022-09-23T05:44:31.473Z,87.23
2022-09-23T05:46:58.297Z,87.26
2022-09-23T05:49:37.913Z,87.16
2022-09-23T05:52:11.831Z,87.00
2022-09-23T05:54:38.678Z,87.05
2022-09-23T05:57:06.156Z,87.21
2022-09-23T05:59:33.399Z,87.16
2022-09-23T06:02:00.940Z,87.13
2022-09-23T06:04:27.682Z,87.35
2022-09-23T06:06:54.472Z,87.48
2022-09-23T06:09:21.180Z,87.53
2022-09-23T06:11:47.836Z,87.58
2022-09-23T06:14:15.131Z,87.64
2022-09-23T06:16:43.215Z,87.46
2022-09-23T06:19:10.576Z,87.41
2022-09-23T06:21:39.560Z,87.73
2022-09-23T06:24:07.240Z,87.71
2022-09-23T06:26:35.261Z,87.72
2022-09-23T06:29:02.916Z,87.84
2022-09-23T06:31:30.390Z,87.77
2022-09-23T06:34:08.246Z,87.72
2022-09-23T06:36:44.050Z,87.74
2022-09-23T06:39:12.277Z,88.00
2022-09-23T06:41:39.530Z,88.17
2022-09-23T06:44:06.396Z,87.97
2022-09-23T06:46:33.241Z,88.08
2022-09-23T06:49:00.109Z,88.20
2022-09-23T06:51:26.727Z,87.89
2022-09-23T06:53:53.421Z,88.05
2022-09-23T06:56:21.298Z,87.84
2022-09-23T06:58:48.042Z,87.94
2022-09-23T07:01:17.099Z,88.21
2022-09-23T07:08:35.961Z,88.00
2022-09-23T07:12:02.391Z,88.02
2022-09-23T07:14:29.268Z,88.22
2022-09-23T07:16:55.995Z,88.31
2022-09-23T07:19:22.668Z,88.18
2022-09-23T07:21:49.584Z,88.38
2022-09-23T07:24:16.768Z,87.96
2022-09-23T07:26:45.799Z,88.14
2022-09-23T07:29:15.935Z,87.97
2022-09-23T07:31:42.787Z,87.95
2022-09-23T07:34:11.762Z,88.17
2022-09-23T07:36:41.097Z,87.85
2022-09-23T07:39:11.277Z,87.90
2022-09-23T07:41:38.171Z,87.71
2022-09-23T07:44:06.402Z,87.79
2022-09-23T07:46:35.912Z,87.93
2022-09-23T07:49:03.514Z,87.54
2022-09-23T07:51:36.581Z,87.51
2022-09-23T07:54:07.415Z,87.29
2022-09-23T07:56:35.947Z,87.35
2022-09-23T07:59:05.808Z,87.29
2022-09-23T08:01:36.657Z,87.02
2022-09-23T08:04:12.006Z,87.15
2022-09-23T08:06:49.997Z,87.20
2022-09-23T08:09:18.212Z,87.01
2022-09-23T08:11:45.100Z,87.12
2022-09-23T08:14:14.133Z,86.62
2022-09-23T08:16:42.236Z,86.60
2022-09-23T08:19:09.161Z,86.61
2022-09-23T08:21:37.773Z,86.49
2022-09-23T08:24:04.674Z,86.59
2022-09-23T08:26:34.336Z,86.40
2022-09-23T08:29:02.125Z,86.05
2022-09-23T08:31:28.891Z,86.17
2022-09-23T08:33:57.505Z,86.32
2022-09-23T08:36:25.531Z,86.21
2022-09-23T08:38:52.666Z,85.99
2022-09-23T08:41:34.889Z,85.72
2022-09-23T08:44:31.612Z,85.64
2022-09-23T08:47:17.984Z,85.36
2022-09-23T08:49:56.542Z,85.39
2022-09-23T08:52:34.557Z,85.05
2022-09-23T08:55:03.306Z,84.82
2022-09-23T08:58:02.260Z,84.96
2022-09-23T09:00:37.352Z,84.79
2022-09-23T09:03:21.314Z,84.14
2022-09-23T09:05:54.272Z,83.93
2022-09-23T09:08:34.772Z,83.79
2022-09-23T09:11:01.549Z,83.95
2022-09-23T09:13:34.301Z,83.43
2022-09-23T09:16:31.706Z,83.39
2022-09-23T09:19:20.319Z,83.39
2022-09-23T09:21:52.328Z,83.05
2022-09-23T09:24:27.156Z,82.94
2022-09-23T09:26:54.207Z,82.51
2022-09-23T09:29:35.525Z,82.60
2022-09-23T09:32:17.047Z,82.17
2022-09-23T09:34:54.148Z,82.21
2022-09-23T09:37:33.914Z,81.91
2022-09-23T09:40:00.714Z,81.56
2022-09-23T09:42:37.350Z,81.67
2022-09-23T09:45:07.391Z,81.37
2022-09-23T09:48:00.748Z,81.11
2022-09-23T09:50:45.223Z,80.91
2022-09-23T09:53:25.588Z,80.24
2022-09-23T09:56:05.188Z,80.23
2022-09-23T09:58:44.041Z,79.88
2022-09-23T10:01:25.208Z,79.44
2022-09-23T10:03:59.580Z,79.14
2022-09-23T10:06:32.622Z,78.57
2022-09-23T10:09:02.559Z,78.25
2022-09-23T10:11:30.440Z,77.87
2022-09-23T10:14:02.702Z,77.53
2022-09-23T10:16:32.062Z,77.31
2022-09-23T10:19:27.397Z,77.03
2022-09-23T10:22:00.089Z,76.50
2022-09-23T10:24:30.060Z,76.09
2022-09-23T10:27:12.091Z,75.89
2022-09-23T10:29:47.611Z,75.58
2022-09-23T10:32:26.471Z,75.11
2022-09-23T10:35:14.806Z,74.81
2022-09-23T10:37:51.810Z,74.38
2022-09-23T10:40:49.584Z,74.24
2022-09-23T10:43:44.151Z,73.88
2022-09-23T10:46:39.795Z,73.67
2022-09-23T10:49:34.075Z,72.95
2022-09-23T10:52:17.273Z,72.86
2022-09-23T10:54:49.993Z,72.63
2022-09-23T10:57:40.835Z,72.39
2022-09-23T11:00:32.706Z,71.96
2022-09-23T11:03:40.673Z,71.28
2022-09-23T11:06:42.446Z,70.74
2022-09-23T11:09:40.863Z,70.40
2022-09-23T11:12:25.947Z,69.80
2022-09-23T11:15:07.379Z,68.94
2022-09-23T11:17:59.495Z,68.60
2022-09-23T11:20:41.836Z,67.70
2022-09-23T11:23:33.189Z,67.36
2022-09-23T11:26:34.257Z,66.82
2022-09-23T11:29:02.643Z,66.47
2022-09-23T11:31:41.679Z,66.38
2022-09-23T11:34:45.123Z,65.69
2022-09-23T11:37:17.458Z,64.99
2022-09-23T11:39:53.454Z,64.30
2022-09-23T11:42:28.991Z,63.70
2022-09-23T11:45:07.087Z,63.07
2022-09-23T11:47:45.496Z,62.43
2022-09-23T11:50:25.965Z,61.94
2022-09-23T11:53:02.952Z,61.64
2022-09-23T11:55:37.911Z,61.20
2022-09-23T11:58:26.280Z,60.86
2022-09-23T12:01:10.323Z,60.43
2022-09-23T12:03:54.200Z,60.32
2022-09-23T12:06:32.946Z,59.89
2022-09-23T12:09:05.251Z,59.74
2022-09-23T12:11:39.555Z,59.62
2022-09-23T12:14:12.453Z,59.59
2022-09-23T12:18:05.058Z,59.44
2022-09-23T12:21:27.490Z,59.19
2022-09-23T12:24:37.912Z,58.99
2022-09-23T12:27:47.348Z,58.81
2022-09-23T12:34:59.932Z,58.30
2022-09-23T12:38:35.708Z,57.22
2022-09-23T12:42:11.601Z,55.83
2022-09-23T12:45:56.372Z,54.18
2022-09-23T12:49:25.555Z,52.52
2022-09-23T12:52:10.856Z,51.13
2022-09-23T12:54:39.564Z,50.16
2022-09-23T12:57:34.931Z,48.50
2022-09-23T13:00:11.552Z,47.05
2022-09-23T13:02:43.384Z,45.78
2022-09-23T13:05:44.129Z,44.91
2022-09-23T13:08:24.602Z,44.00
2022-09-23T13:11:02.934Z,43.79
2022-09-23T13:13:31.793Z,43.77
2022-09-23T13:16:18.903Z,43.95
2022-09-23T13:18:54.249Z,44.38
2022-09-23T13:21:42.694Z,44.67
2022-09-23T13:24:18.135Z,45.13
2022-09-23T13:26:55.210Z,45.22
2022-09-23T13:30:19.324Z,44.50
2022-09-23T13:32:54.057Z,43.49
2022-09-23T13:35:29.873Z,42.07
2022-09-23T13:37:57.842Z,41.08
2022-09-23T13:40:27.862Z,39.97
2022-09-23T13:43:06.458Z,38.78
2022-09-23T13:45:40.045Z,37.39
2022-09-23T13:48:11.709Z,36.61
2022-09-23T13:50:40.993Z,35.47
2022-09-23T13:53:14.583Z,35.02
2022-09-23T13:55:41.500Z,34.32
2022-09-23T13:58:24.212Z,34.18
2022-09-23T14:00:51.844Z,34.27
2022-09-23T14:03:25.558Z,34.86
2022-09-23T14:05:55.173Z,34.96
2022-09-23T14:08:22.855Z,34.72
2022-09-23T14:10:50.009Z,35.00
2022-09-23T14:13:43.759Z,34.37
2022-09-23T14:16:15.214Z,33.71
2022-09-23T14:18:45.482Z,33.05
2022-09-23T14:21:30.647Z,32.33
2022-09-23T14:23:57.358Z,32.28
2022-09-23T14:26:24.841Z,31.10
2022-09-23T14:28:52.588Z,31.16
2022-09-23T14:31:19.452Z,31.34
2022-09-23T14:33:46.977Z,31.34
2022-09-23T14:36:36.900Z,31.86
2022-09-23T14:39:09.548Z,32.24
2022-09-23T14:41:40.267Z,32.63
2022-09-23T14:44:15.169Z,33.00
2022-09-23T14:47:00.729Z,33.96
2022-09-23T14:49:27.918Z,34.47
2022-09-23T14:52:03.238Z,35.18
2022-09-23T14:55:02.091Z,36.29
2022-09-23T14:57:31.604Z,36.88
2022-09-23T15:00:14.704Z,37.98
2022-09-23T15:02:57.611Z,38.46
2022-09-23T15:05:43.376Z,39.46
2022-09-23T15:08:14.267Z,39.80
2022-09-23T15:10:41.392Z,40.41
2022-09-23T15:13:24.103Z,41.07
2022-09-23T15:15:54.975Z,41.57
2022-09-23T15:18:34.595Z,42.11
2022-09-23T15:21:07.666Z,43.22
2022-09-23T15:23:45.108Z,43.76
2022-09-23T15:26:22.671Z,44.52
2022-09-23T15:28:54.147Z,45.16
2022-09-23T15:31:23.362Z,45.85
2022-09-23T15:33:51.148Z,46.84
2022-09-23T15:36:19.433Z,47.54
2022-09-23T15:38:46.884Z,47.85
2022-09-23T15:41:14.559Z,48.64
2022-09-23T15:43:42.094Z,49.24
2022-09-23T15:46:19.121Z,49.90
2022-09-23T15:49:14.736Z,49.97
2022-09-23T15:51:43.265Z,50.34
2022-09-23T15:54:12.791Z,50.88
2022-09-23T15:56:40.099Z,51.49
2022-09-23T15:59:06.822Z,51.82
2022-09-23T16:01:37.090Z,52.05
2022-09-23T16:04:04.888Z,52.17
2022-09-23T16:06:32.366Z,52.27
2022-09-23T16:08:59.085Z,52.51
2022-09-23T16:11:33.119Z,52.47
2022-09-23T16:14:00.849Z,52.59
2022-09-23T16:16:28.229Z,52.52
2022-09-23T16:18:55.537Z,52.73
2022-09-23T16:21:28.018Z,53.18
2022-09-23T16:23:55.501Z,53.29
2022-09-23T16:26:31.107Z,53.53
2022-09-23T16:28:58.847Z,53.78
2022-09-23T16:31:26.793Z,53.61
2022-09-23T16:33:54.139Z,53.72
2022-09-23T16:36:31.203Z,54.13
2022-09-23T16:39:00.321Z,54.24
2022-09-23T16:41:31.692Z,54.69
2022-09-23T16:44:00.926Z,54.56
2022-09-23T16:46:29.492Z,55.06
2022-09-23T16:48:57.756Z,54.94
2022-09-23T16:51:30.173Z,55.34
2022-09-23T16:53:58.940Z,55.32
2022-09-23T16:56:29.206Z,56.04
2022-09-23T16:58:57.096Z,56.04
2022-09-23T17:01:47.533Z,56.13
2022-09-23T17:04:16.295Z,56.79
2022-09-23T17:07:01.101Z,56.58
2022-09-23T17:09:29.240Z,57.19
2022-09-23T17:12:06.299Z,57.29
2022-09-23T17:14:33.822Z,57.50
2022-09-23T17:17:01.332Z,57.34
2022-09-23T17:19:28.373Z,57.50
2022-09-23T17:21:55.146Z,58.05
2022-09-23T17:24:21.837Z,58.13
2022-09-23T17:26:52.813Z,57.91
2022-09-23T17:29:20.162Z,58.55
2022-09-23T17:31:46.827Z,58.22
2022-09-23T17:34:13.653Z,58.64
2022-09-23T17:36:40.725Z,58.79
2022-09-23T17:39:07.500Z,58.71
2022-09-23T17:41:34.482Z,59.02
2022-09-23T17:44:02.110Z,58.83
2022-09-23T17:46:30.244Z,59.17
2022-09-23T17:48:57.532Z,58.98
2022-09-23T17:51:25.542Z,59.48
2022-09-23T17:53:52.662Z,59.55
2022-09-23T17:56:26.775Z,59.64
2022-09-23T17:58:54.165Z,59.82
2022-09-23T18:01:26.010Z,59.70
2022-09-23T18:03:57.719Z,60.16
2022-09-23T18:06:26.709Z,59.88
2022-09-23T18:08:53.611Z,60.11
2022-09-23T18:11:21.582Z,60.31
2022-09-23T18:13:53.158Z,60.33
2022-09-23T18:16:21.807Z,60.28
2022-09-23T18:18:53.126Z,60.78
2022-09-23T18:21:21.373Z,60.58
2022-09-23T18:23:48.914Z,61.00
2022-09-23T18:26:17.978Z,60.78
2022-09-23T18:28:45.284Z,61.42
2022-09-23T18:31:12.303Z,61.14
2022-09-23T18:33:39.466Z,61.04
2022-09-23T18:36:07.419Z,61.08
2022-09-23T18:38:34.975Z,61.44
2022-09-23T18:41:02.002Z,61.13
2022-09-23T18:43:37.527Z,61.01
2022-09-23T18:46:10.411Z,61.17
2022-09-23T18:48:55.906Z,60.79
2022-09-23T18:51:28.575Z,60.61
2022-09-23T18:53:59.325Z,60.53
2022-09-23T18:56:29.654Z,60.63
2022-09-23T18:58:56.815Z,60.70
2022-09-23T19:01:24.532Z,60.56
2022-09-23T19:03:57.756Z,60.53
2022-09-23T19:06:25.119Z,60.08
2022-09-23T19:08:53.774Z,60.19
2022-09-23T19:11:21.693Z,60.10
2022-09-23T19:13:56.418Z,60.37
2022-09-23T19:16:24.578Z,60.08
2022-09-23T19:18:51.849Z,60.46
2022-09-23T19:21:21.543Z,60.39
2022-09-23T19:23:51.512Z,60.62
2022-09-23T19:26:21.774Z,60.49
2022-09-23T19:28:50.472Z,60.60
2022-09-23T19:31:23.218Z,60.45
2022-09-23T19:34:01.054Z,60.70
2022-09-23T19:36:32.947Z,60.38
2022-09-23T19:39:06.096Z,60.78
2022-09-23T19:41:33.751Z,60.71
2022-09-23T19:44:07.396Z,60.63
2022-09-23T19:46:40.929Z,60.79
2022-09-23T19:49:07.914Z,60.54
2022-09-23T19:51:35.463Z,60.86
2022-09-23T19:54:03.558Z,61.25
2022-09-23T19:56:31.987Z,61.10
2022-09-23T19:58:59.540Z,60.92
2022-09-23T20:01:29.737Z,61.43
2022-09-23T20:03:56.857Z,61.22
2022-09-23T20:06:23.790Z,61.61
2022-09-23T20:08:51.007Z,61.43
2022-09-23T20:11:23.665Z,61.13
2022-09-23T20:14:02.451Z,61.34
2022-09-23T20:16:32.523Z,61.44
2022-09-23T20:19:00.973Z,60.95
2022-09-23T20:21:29.678Z,61.36
2022-09-23T20:23:57.095Z,61.14
2022-09-23T20:26:42.645Z,61.14
2022-09-23T20:29:10.818Z,61.25
2022-09-23T20:31:40.584Z,61.22
2022-09-23T20:34:08.545Z,61.02
2022-09-23T20:36:36.104Z,61.03
2022-09-23T20:39:06.062Z,61.28
2022-09-23T20:41:38.071Z,61.49
2022-09-23T20:44:07.691Z,61.08
2022-09-23T20:46:34.721Z,61.38
2022-09-23T20:49:02.212Z,61.31
2022-09-23T20:51:29.008Z,61.58
2022-09-23T20:53:55.711Z,61.61
2022-09-23T20:56:22.906Z,61.39
2022-09-23T20:58:50.926Z,61.24
2022-09-23T21:01:18.316Z,61.51
2022-09-23T21:03:47.521Z,61.38
2022-09-23T21:06:16.795Z,61.37
2022-09-23T21:08:44.715Z,61.21
2022-09-23T21:11:17.071Z,61.58
2022-09-23T21:13:48.395Z,61.48
2022-09-23T21:16:17.279Z,61.25
2022-09-23T21:18:44.898Z,61.40
2022-09-23T21:21:14.160Z,61.24
2022-09-23T21:23:43.460Z,61.30
2022-09-23T21:26:12.880Z,61.46
2022-09-23T21:28:44.662Z,61.33
2022-09-23T21:31:23.164Z,61.66
2022-09-23T21:33:57.068Z,61.65
2022-09-23T21:36:24.980Z,61.71
2022-09-23T21:38:52.621Z,61.95
2022-09-23T21:41:20.210Z,61.95
2022-09-23T21:43:47.696Z,61.98
2022-09-23T21:46:20.195Z,62.32
2022-09-23T21:48:53.721Z,62.30
2022-09-23T21:51:27.875Z,62.42
2022-09-23T21:53:57.125Z,62.48
2022-09-23T21:56:28.813Z,62.73
2022-09-23T21:58:57.655Z,62.87
2022-09-23T22:01:27.296Z,63.07
2022-09-23T22:03:55.781Z,63.16
2022-09-23T22:06:26.940Z,63.31
2022-09-23T22:08:59.230Z,63.18
2022-09-23T22:11:47.105Z,63.31
2022-09-23T22:14:15.586Z,63.55
2022-09-23T22:16:42.984Z,63.27
2022-09-23T22:19:11.058Z,63.30
2022-09-23T22:21:39.053Z,63.43
2022-09-23T22:24:08.468Z,63.75
2022-09-23T22:26:40.876Z,63.72
2022-09-23T22:29:28.770Z,64.09
2022-09-23T22:32:14.450Z,64.13
2022-09-23T22:34:50.974Z,64.08
2022-09-23T22:37:28.826Z,64.11
2022-09-23T22:39:55.499Z,64.33
2022-09-23T22:42:22.547Z,64.13
2022-09-23T22:44:50.186Z,64.23
2022-09-23T22:47:20.705Z,64.17
2022-09-23T22:49:48.684Z,64.38
2022-09-23T22:52:21.309Z,64.70
2022-09-23T22:54:48.265Z,64.35
2022-09-23T22:57:15.327Z,64.42
2022-09-23T22:59:48.262Z,64.88
2022-09-23T23:02:19.954Z,64.73
2022-09-23T23:04:47.769Z,64.99
2022-09-23T23:07:16.035Z,65.01
2022-09-23T23:09:42.744Z,65.15
2022-09-23T23:12:09.378Z,65.16
2022-09-23T23:14:37.620Z,65.03
2022-09-23T23:17:07.588Z,65.24
2022-09-23T23:19:36.313Z,65.40
2022-09-23T23:22:04.678Z,65.41
2022-09-23T23:24:32.475Z,65.38
2022-09-23T23:26:59.230Z,65.47
2022-09-23T23:29:26.190Z,65.60
2022-09-23T23:31:52.940Z,65.45
2022-09-23T23:34:21.187Z,65.76
2022-09-23T23:36:55.299Z,66.00
2022-09-23T23:39:23.716Z,66.03
2022-09-23T23:41:58.165Z,66.02
2022-09-23T23:44:26.437Z,66.25
2022-09-23T23:46:54.375Z,66.04
2022-09-23T23:49:23.911Z,66.17
2022-09-23T23:51:50.709Z,66.50
2022-09-23T23:54:17.421Z,66.50
2022-09-23T23:56:44.343Z,66.74
2022-09-23T23:59:11.585Z,66.84
